sensor_id;sensor_type;location;lat;lon;timestamp;temperature;humidity
61398;DHT22;47267;48.130;-2.040;2024-01-30T00:01:36;19.80;56.00
61398;DHT22;47267;48.130;-2.040;2024-01-30T00:04:02;19.80;56.00
61398;DHT22;47267;48.130;-2.040;2024-01-30T00:06:28;19.80;56.00
61398;DHT22;47267;48.130;-2.040;2024-01-30T00:08:54;19.80;56.10
61398;DHT22;47267;48.130;-2.040;2024-01-30T00:11:19;19.80;56.10
61398;DHT22;47267;48.130;-2.040;2024-01-30T00:13:45;19.80;56.10
61398;DHT22;47267;48.130;-2.040;2024-01-30T00:16:24;19.90;56.10
61398;DHT22;47267;48.130;-2.040;2024-01-30T00:18:51;19.90;56.00
61398;DHT22;47267;48.130;-2.040;2024-01-30T00:21:17;19.90;56.60
61398;DHT22;47267;48.130;-2.040;2024-01-30T00:23:43;19.90;56.00
61398;DHT22;47267;48.130;-2.040;2024-01-30T00:26:08;19.90;56.10
61398;DHT22;47267;48.130;-2.040;2024-01-30T00:28:35;19.90;56.00
61398;DHT22;47267;48.130;-2.040;2024-01-30T00:31:00;19.90;56.00
61398;DHT22;47267;48.130;-2.040;2024-01-30T00:33:26;19.90;56.00
61398;DHT22;47267;48.130;-2.040;2024-01-30T00:35:52;19.90;55.90
61398;DHT22;47267;48.130;-2.040;2024-01-30T00:38:18;19.90;55.90
61398;DHT22;47267;48.130;-2.040;2024-01-30T00:40:43;19.90;56.00
61398;DHT22;47267;48.130;-2.040;2024-01-30T00:43:09;19.90;55.90
61398;DHT22;47267;48.130;-2.040;2024-01-30T00:45:35;20.00;55.90
61398;DHT22;47267;48.130;-2.040;2024-01-30T00:48:00;19.90;55.80
61398;DHT22;47267;48.130;-2.040;2024-01-30T00:50:26;19.90;55.80
61398;DHT22;47267;48.130;-2.040;2024-01-30T00:52:52;20.00;55.80
61398;DHT22;47267;48.130;-2.040;2024-01-30T00:55:17;20.00;55.80
61398;DHT22;47267;48.130;-2.040;2024-01-30T00:57:43;20.00;55.80
61398;DHT22;47267;48.130;-2.040;2024-01-30T01:00:09;20.00;55.70
61398;DHT22;47267;48.130;-2.040;2024-01-30T01:02:35;20.00;55.70
61398;DHT22;47267;48.130;-2.040;2024-01-30T01:05:02;20.00;55.70
61398;DHT22;47267;48.130;-2.040;2024-01-30T01:07:27;20.00;55.70
61398;DHT22;47267;48.130;-2.040;2024-01-30T01:09:53;20.00;55.60
61398;DHT22;47267;48.130;-2.040;2024-01-30T01:12:19;20.00;55.60
61398;DHT22;47267;48.130;-2.040;2024-01-30T01:14:45;20.00;55.50
61398;DHT22;47267;48.130;-2.040;2024-01-30T01:17:10;20.00;55.50
61398;DHT22;47267;48.130;-2.040;2024-01-30T01:19:36;20.00;55.50
61398;DHT22;47267;48.130;-2.040;2024-01-30T01:22:02;20.00;55.40
61398;DHT22;47267;48.130;-2.040;2024-01-30T01:24:30;20.00;55.40
61398;DHT22;47267;48.130;-2.040;2024-01-30T01:26:57;20.00;55.40
61398;DHT22;47267;48.130;-2.040;2024-01-30T01:29:23;20.00;55.30
61398;DHT22;47267;48.130;-2.040;2024-01-30T01:31:57;20.00;55.30
61398;DHT22;47267;48.130;-2.040;2024-01-30T01:34:23;20.10;55.90
61398;DHT22;47267;48.130;-2.040;2024-01-30T01:36:49;20.10;55.30
61398;DHT22;47267;48.130;-2.040;2024-01-30T01:39:15;20.10;55.30
61398;DHT22;47267;48.130;-2.040;2024-01-30T01:41:41;20.10;55.30
61398;DHT22;47267;48.130;-2.040;2024-01-30T01:44:07;20.10;55.20
61398;DHT22;47267;48.130;-2.040;2024-01-30T01:46:34;20.10;55.30
61398;DHT22;47267;48.130;-2.040;2024-01-30T01:49:04;20.10;55.20
61398;DHT22;47267;48.130;-2.040;2024-01-30T01:51:33;20.10;55.80
61398;DHT22;47267;48.130;-2.040;2024-01-30T01:54:03;20.10;55.10
61398;DHT22;47267;48.130;-2.040;2024-01-30T01:56:29;20.10;55.10
61398;DHT22;47267;48.130;-2.040;2024-01-30T01:59:05;20.10;55.10
61398;DHT22;47267;48.130;-2.040;2024-01-30T02:01:33;20.10;55.10
61398;DHT22;47267;48.130;-2.040;2024-01-30T02:03:59;20.10;55.10
61398;DHT22;47267;48.130;-2.040;2024-01-30T02:06:26;20.10;55.00
61398;DHT22;47267;48.130;-2.040;2024-01-30T02:08:52;20.10;55.00
61398;DHT22;47267;48.130;-2.040;2024-01-30T02:11:18;20.10;55.00
61398;DHT22;47267;48.130;-2.040;2024-01-30T02:13:45;20.10;55.00
61398;DHT22;47267;48.130;-2.040;2024-01-30T02:16:11;20.10;54.90
61398;DHT22;47267;48.130;-2.040;2024-01-30T02:18:36;20.10;54.90
61398;DHT22;47267;48.130;-2.040;2024-01-30T02:21:07;20.10;54.90
61398;DHT22;47267;48.130;-2.040;2024-01-30T02:23:33;20.00;54.90
61398;DHT22;47267;48.130;-2.040;2024-01-30T02:26:00;20.10;54.90
61398;DHT22;47267;48.130;-2.040;2024-01-30T02:28:25;20.10;55.40
61398;DHT22;47267;48.130;-2.040;2024-01-30T02:30:52;20.10;54.80
61398;DHT22;47267;48.130;-2.040;2024-01-30T02:33:18;20.10;54.80
61398;DHT22;47267;48.130;-2.040;2024-01-30T02:35:44;20.10;54.80
61398;DHT22;47267;48.130;-2.040;2024-01-30T02:38:09;20.10;54.80
61398;DHT22;47267;48.130;-2.040;2024-01-30T02:40:35;20.10;54.80
61398;DHT22;47267;48.130;-2.040;2024-01-30T02:43:02;20.10;54.80
61398;DHT22;47267;48.130;-2.040;2024-01-30T02:45:28;20.10;54.70
61398;DHT22;47267;48.130;-2.040;2024-01-30T02:47:54;20.10;54.70
61398;DHT22;47267;48.130;-2.040;2024-01-30T02:50:19;20.00;54.70
61398;DHT22;47267;48.130;-2.040;2024-01-30T02:52:45;20.10;54.70
61398;DHT22;47267;48.130;-2.040;2024-01-30T02:55:11;20.10;54.70
61398;DHT22;47267;48.130;-2.040;2024-01-30T02:57:38;20.10;54.70
61398;DHT22;47267;48.130;-2.040;2024-01-30T03:00:05;20.10;54.70
61398;DHT22;47267;48.130;-2.040;2024-01-30T03:02:32;20.10;54.60
61398;DHT22;47267;48.130;-2.040;2024-01-30T03:04:58;20.00;54.60
61398;DHT22;47267;48.130;-2.040;2024-01-30T03:07:24;20.10;54.60
61398;DHT22;47267;48.130;-2.040;2024-01-30T03:09:50;20.10;54.60
61398;DHT22;47267;48.130;-2.040;2024-01-30T03:12:15;20.10;54.60
61398;DHT22;47267;48.130;-2.040;2024-01-30T03:14:41;20.10;54.60
61398;DHT22;47267;48.130;-2.040;2024-01-30T03:17:07;20.10;54.60
61398;DHT22;47267;48.130;-2.040;2024-01-30T03:19:33;20.10;54.50
61398;DHT22;47267;48.130;-2.040;2024-01-30T03:21:59;20.10;54.50
61398;DHT22;47267;48.130;-2.040;2024-01-30T03:24:24;20.10;54.50
61398;DHT22;47267;48.130;-2.040;2024-01-30T03:26:50;20.10;54.50
61398;DHT22;47267;48.130;-2.040;2024-01-30T03:29:16;20.10;54.50
61398;DHT22;47267;48.130;-2.040;2024-01-30T03:31:42;20.10;54.50
61398;DHT22;47267;48.130;-2.040;2024-01-30T03:34:07;20.10;54.50
61398;DHT22;47267;48.130;-2.040;2024-01-30T03:36:33;20.10;54.40
61398;DHT22;47267;48.130;-2.040;2024-01-30T03:39:00;20.10;54.40
61398;DHT22;47267;48.130;-2.040;2024-01-30T03:41:26;20.10;54.40
61398;DHT22;47267;48.130;-2.040;2024-01-30T03:43:51;20.10;54.40
61398;DHT22;47267;48.130;-2.040;2024-01-30T03:46:17;20.10;54.40
61398;DHT22;47267;48.130;-2.040;2024-01-30T03:48:43;20.10;54.40
61398;DHT22;47267;48.130;-2.040;2024-01-30T03:51:09;20.10;54.40
61398;DHT22;47267;48.130;-2.040;2024-01-30T03:53:42;20.10;54.40
61398;DHT22;47267;48.130;-2.040;2024-01-30T03:56:09;20.10;54.40
61398;DHT22;47267;48.130;-2.040;2024-01-30T03:58:35;20.00;54.30
61398;DHT22;47267;48.130;-2.040;2024-01-30T04:01:01;20.00;54.30
61398;DHT22;47267;48.130;-2.040;2024-01-30T04:03:26;20.10;54.30
61398;DHT22;47267;48.130;-2.040;2024-01-30T04:05:52;20.00;54.30
61398;DHT22;47267;48.130;-2.040;2024-01-30T04:08:18;20.00;54.30
61398;DHT22;47267;48.130;-2.040;2024-01-30T04:10:44;20.00;54.30
61398;DHT22;47267;48.130;-2.040;2024-01-30T04:13:10;20.00;54.20
61398;DHT22;47267;48.130;-2.040;2024-01-30T04:15:36;20.00;54.20
61398;DHT22;47267;48.130;-2.040;2024-01-30T04:18:02;20.00;54.20
61398;DHT22;47267;48.130;-2.040;2024-01-30T04:20:27;20.00;54.20
61398;DHT22;47267;48.130;-2.040;2024-01-30T04:22:53;20.00;54.20
61398;DHT22;47267;48.130;-2.040;2024-01-30T04:25:19;20.00;54.20
61398;DHT22;47267;48.130;-2.040;2024-01-30T04:27:44;20.00;54.20
61398;DHT22;47267;48.130;-2.040;2024-01-30T04:30:10;20.00;54.20
61398;DHT22;47267;48.130;-2.040;2024-01-30T04:32:37;20.00;54.20
61398;DHT22;47267;48.130;-2.040;2024-01-30T04:35:03;20.00;54.20
61398;DHT22;47267;48.130;-2.040;2024-01-30T04:37:29;20.00;54.20
61398;DHT22;47267;48.130;-2.040;2024-01-30T04:39:54;19.90;54.10
61398;DHT22;47267;48.130;-2.040;2024-01-30T04:42:23;20.00;54.20
61398;DHT22;47267;48.130;-2.040;2024-01-30T04:44:49;19.90;54.10
61398;DHT22;47267;48.130;-2.040;2024-01-30T04:47:15;19.90;54.10
61398;DHT22;47267;48.130;-2.040;2024-01-30T04:49:41;20.00;54.10
61398;DHT22;47267;48.130;-2.040;2024-01-30T04:52:07;19.90;54.10
61398;DHT22;47267;48.130;-2.040;2024-01-30T04:54:34;19.90;54.00
61398;DHT22;47267;48.130;-2.040;2024-01-30T04:57:00;19.90;54.10
61398;DHT22;47267;48.130;-2.040;2024-01-30T04:59:26;19.90;54.10
61398;DHT22;47267;48.130;-2.040;2024-01-30T05:01:52;19.90;54.10
61398;DHT22;47267;48.130;-2.040;2024-01-30T05:04:17;19.90;54.10
61398;DHT22;47267;48.130;-2.040;2024-01-30T05:06:43;19.90;54.10
61398;DHT22;47267;48.130;-2.040;2024-01-30T05:09:09;19.90;54.10
61398;DHT22;47267;48.130;-2.040;2024-01-30T05:11:41;19.90;54.10
61398;DHT22;47267;48.130;-2.040;2024-01-30T05:14:07;19.90;54.10
61398;DHT22;47267;48.130;-2.040;2024-01-30T05:16:34;19.90;54.10
61398;DHT22;47267;48.130;-2.040;2024-01-30T05:19:00;19.90;54.00
61398;DHT22;47267;48.130;-2.040;2024-01-30T05:21:26;19.90;54.00
61398;DHT22;47267;48.130;-2.040;2024-01-30T05:23:51;19.90;54.00
61398;DHT22;47267;48.130;-2.040;2024-01-30T05:26:17;19.90;54.00
61398;DHT22;47267;48.130;-2.040;2024-01-30T05:28:43;19.90;54.00
61398;DHT22;47267;48.130;-2.040;2024-01-30T05:31:10;19.90;54.00
61398;DHT22;47267;48.130;-2.040;2024-01-30T05:33:36;19.90;54.00
61398;DHT22;47267;48.130;-2.040;2024-01-30T05:36:02;19.80;53.90
61398;DHT22;47267;48.130;-2.040;2024-01-30T05:38:30;19.90;54.00
61398;DHT22;47267;48.130;-2.040;2024-01-30T05:40:57;19.90;54.00
61398;DHT22;47267;48.130;-2.040;2024-01-30T05:43:24;19.90;54.00
61398;DHT22;47267;48.130;-2.040;2024-01-30T05:45:50;19.80;53.90
61398;DHT22;47267;48.130;-2.040;2024-01-30T05:48:16;19.90;54.00
61398;DHT22;47267;48.130;-2.040;2024-01-30T05:50:42;19.90;53.90
61398;DHT22;47267;48.130;-2.040;2024-01-30T05:53:07;19.80;53.90
61398;DHT22;47267;48.130;-2.040;2024-01-30T05:55:33;19.80;53.90
61398;DHT22;47267;48.130;-2.040;2024-01-30T05:57:59;19.80;53.90
61398;DHT22;47267;48.130;-2.040;2024-01-30T06:00:24;19.80;53.90
61398;DHT22;47267;48.130;-2.040;2024-01-30T06:02:50;19.80;53.90
61398;DHT22;47267;48.130;-2.040;2024-01-30T06:05:16;19.80;53.90
61398;DHT22;47267;48.130;-2.040;2024-01-30T06:07:42;19.80;54.00
61398;DHT22;47267;48.130;-2.040;2024-01-30T06:10:08;19.80;54.00
61398;DHT22;47267;48.130;-2.040;2024-01-30T06:12:34;19.80;54.00
61398;DHT22;47267;48.130;-2.040;2024-01-30T06:15:00;19.80;54.00
61398;DHT22;47267;48.130;-2.040;2024-01-30T06:17:26;19.80;54.10
61398;DHT22;47267;48.130;-2.040;2024-01-30T06:19:52;19.80;54.20
61398;DHT22;47267;48.130;-2.040;2024-01-30T06:22:17;19.80;54.30
61398;DHT22;47267;48.130;-2.040;2024-01-30T06:24:43;19.80;54.50
61398;DHT22;47267;48.130;-2.040;2024-01-30T06:27:10;19.70;54.40
61398;DHT22;47267;48.130;-2.040;2024-01-30T06:29:36;19.80;54.50
61398;DHT22;47267;48.130;-2.040;2024-01-30T06:32:02;19.80;54.60
61398;DHT22;47267;48.130;-2.040;2024-01-30T06:34:27;19.70;54.50
61398;DHT22;47267;48.130;-2.040;2024-01-30T06:36:53;19.70;54.80
61398;DHT22;47267;48.130;-2.040;2024-01-30T06:39:19;19.70;54.70
61398;DHT22;47267;48.130;-2.040;2024-01-30T06:41:45;19.70;54.70
61398;DHT22;47267;48.130;-2.040;2024-01-30T06:44:12;19.70;54.70
61398;DHT22;47267;48.130;-2.040;2024-01-30T06:46:38;19.70;54.80
61398;DHT22;47267;48.130;-2.040;2024-01-30T06:49:04;19.70;54.90
61398;DHT22;47267;48.130;-2.040;2024-01-30T06:51:29;19.60;54.80
61398;DHT22;47267;48.130;-2.040;2024-01-30T06:53:55;19.60;54.90
61398;DHT22;47267;48.130;-2.040;2024-01-30T06:56:21;19.70;55.00
61398;DHT22;47267;48.130;-2.040;2024-01-30T06:58:48;19.60;54.90
61398;DHT22;47267;48.130;-2.040;2024-01-30T07:01:14;19.60;54.90
61398;DHT22;47267;48.130;-2.040;2024-01-30T07:03:40;19.60;55.00
61398;DHT22;47267;48.130;-2.040;2024-01-30T07:06:05;19.60;55.00
61398;DHT22;47267;48.130;-2.040;2024-01-30T07:08:31;19.60;55.00
61398;DHT22;47267;48.130;-2.040;2024-01-30T07:10:57;19.60;55.00
61398;DHT22;47267;48.130;-2.040;2024-01-30T07:13:23;19.60;55.10
61398;DHT22;47267;48.130;-2.040;2024-01-30T07:15:48;19.50;55.00
61398;DHT22;47267;48.130;-2.040;2024-01-30T07:18:14;19.50;54.90
61398;DHT22;47267;48.130;-2.040;2024-01-30T07:20:40;19.60;54.90
61398;DHT22;47267;48.130;-2.040;2024-01-30T07:23:15;19.50;54.90
61398;DHT22;47267;48.130;-2.040;2024-01-30T07:25:42;19.50;54.90
61398;DHT22;47267;48.130;-2.040;2024-01-30T07:28:08;19.50;54.80
61398;DHT22;47267;48.130;-2.040;2024-01-30T07:30:35;19.50;54.80
61398;DHT22;47267;48.130;-2.040;2024-01-30T07:33:01;19.50;54.80
61398;DHT22;47267;48.130;-2.040;2024-01-30T07:35:26;19.50;54.80
61398;DHT22;47267;48.130;-2.040;2024-01-30T07:37:52;19.50;54.70
61398;DHT22;47267;48.130;-2.040;2024-01-30T07:40:19;19.50;54.70
61398;DHT22;47267;48.130;-2.040;2024-01-30T07:42:44;19.50;54.70
61398;DHT22;47267;48.130;-2.040;2024-01-30T07:45:10;19.50;54.60
61398;DHT22;47267;48.130;-2.040;2024-01-30T07:47:36;19.50;54.60
61398;DHT22;47267;48.130;-2.040;2024-01-30T07:50:02;19.50;54.60
61398;DHT22;47267;48.130;-2.040;2024-01-30T07:52:28;19.40;54.50
61398;DHT22;47267;48.130;-2.040;2024-01-30T07:58:16;19.50;54.50
61398;DHT22;47267;48.130;-2.040;2024-01-30T08:00:42;19.40;54.40
61398;DHT22;47267;48.130;-2.040;2024-01-30T08:03:07;19.40;54.40
61398;DHT22;47267;48.130;-2.040;2024-01-30T08:05:33;19.40;54.30
61398;DHT22;47267;48.130;-2.040;2024-01-30T08:07:59;19.40;54.30
61398;DHT22;47267;48.130;-2.040;2024-01-30T08:10:25;19.40;54.30
61398;DHT22;47267;48.130;-2.040;2024-01-30T08:12:50;19.30;54.20
61398;DHT22;47267;48.130;-2.040;2024-01-30T08:15:16;19.40;54.20
61398;DHT22;47267;48.130;-2.040;2024-01-30T08:17:42;19.30;54.10
61398;DHT22;47267;48.130;-2.040;2024-01-30T08:20:08;19.30;54.10
61398;DHT22;47267;48.130;-2.040;2024-01-30T08:22:37;19.30;54.00
61398;DHT22;47267;48.130;-2.040;2024-01-30T08:25:03;19.30;54.00
61398;DHT22;47267;48.130;-2.040;2024-01-30T08:27:29;19.30;54.00
61398;DHT22;47267;48.130;-2.040;2024-01-30T08:29:55;19.30;54.00
61398;DHT22;47267;48.130;-2.040;2024-01-30T08:32:21;19.20;53.80
61398;DHT22;47267;48.130;-2.040;2024-01-30T08:34:46;19.20;53.80
61398;DHT22;47267;48.130;-2.040;2024-01-30T08:37:12;19.20;53.80
61398;DHT22;47267;48.130;-2.040;2024-01-30T08:39:42;19.20;53.80
61398;DHT22;47267;48.130;-2.040;2024-01-30T08:42:07;19.20;53.80
61398;DHT22;47267;48.130;-2.040;2024-01-30T08:44:33;19.20;53.70
61398;DHT22;47267;48.130;-2.040;2024-01-30T08:46:59;19.20;53.60
61398;DHT22;47267;48.130;-2.040;2024-01-30T08:49:25;19.20;53.60
61398;DHT22;47267;48.130;-2.040;2024-01-30T08:51:50;19.20;53.60
61398;DHT22;47267;48.130;-2.040;2024-01-30T08:54:16;19.20;53.60
61398;DHT22;47267;48.130;-2.040;2024-01-30T08:56:42;19.20;53.50
61398;DHT22;47267;48.130;-2.040;2024-01-30T08:59:08;19.20;53.50
61398;DHT22;47267;48.130;-2.040;2024-01-30T09:01:34;19.20;53.40
61398;DHT22;47267;48.130;-2.040;2024-01-30T09:04:00;19.20;53.30
61398;DHT22;47267;48.130;-2.040;2024-01-30T09:06:25;19.20;53.30
61398;DHT22;47267;48.130;-2.040;2024-01-30T09:08:53;19.20;53.30
61398;DHT22;47267;48.130;-2.040;2024-01-30T09:11:19;19.10;53.20
61398;DHT22;47267;48.130;-2.040;2024-01-30T09:13:45;19.10;53.20
61398;DHT22;47267;48.130;-2.040;2024-01-30T09:16:10;19.10;53.20
61398;DHT22;47267;48.130;-2.040;2024-01-30T09:18:36;19.10;53.20
61398;DHT22;47267;48.130;-2.040;2024-01-30T09:21:02;19.10;53.10
61398;DHT22;47267;48.130;-2.040;2024-01-30T09:23:28;19.10;53.10
61398;DHT22;47267;48.130;-2.040;2024-01-30T09:25:53;19.10;53.00
61398;DHT22;47267;48.130;-2.040;2024-01-30T09:28:19;19.10;53.10
61398;DHT22;47267;48.130;-2.040;2024-01-30T09:30:45;19.10;53.10
61398;DHT22;47267;48.130;-2.040;2024-01-30T09:33:11;19.10;53.00
61398;DHT22;47267;48.130;-2.040;2024-01-30T09:35:36;19.10;53.00
61398;DHT22;47267;48.130;-2.040;2024-01-30T09:38:02;19.10;52.90
61398;DHT22;47267;48.130;-2.040;2024-01-30T09:40:28;19.10;52.90
61398;DHT22;47267;48.130;-2.040;2024-01-30T09:42:54;19.10;53.00
61398;DHT22;47267;48.130;-2.040;2024-01-30T09:45:24;19.10;52.90
61398;DHT22;47267;48.130;-2.040;2024-01-30T09:47:50;19.10;52.90
61398;DHT22;47267;48.130;-2.040;2024-01-30T09:50:17;19.10;52.90
61398;DHT22;47267;48.130;-2.040;2024-01-30T09:52:44;19.10;52.90
61398;DHT22;47267;48.130;-2.040;2024-01-30T09:55:09;19.10;52.80
61398;DHT22;47267;48.130;-2.040;2024-01-30T09:57:35;19.10;52.80
61398;DHT22;47267;48.130;-2.040;2024-01-30T10:00:05;19.10;52.80
61398;DHT22;47267;48.130;-2.040;2024-01-30T10:02:35;19.10;52.80
61398;DHT22;47267;48.130;-2.040;2024-01-30T10:05:01;19.10;52.80
61398;DHT22;47267;48.130;-2.040;2024-01-30T10:07:27;19.10;52.70
61398;DHT22;47267;48.130;-2.040;2024-01-30T10:09:53;19.10;52.80
61398;DHT22;47267;48.130;-2.040;2024-01-30T10:12:22;19.20;52.80
61398;DHT22;47267;48.130;-2.040;2024-01-30T10:14:47;19.10;52.70
61398;DHT22;47267;48.130;-2.040;2024-01-30T10:17:13;19.20;52.80
61398;DHT22;47267;48.130;-2.040;2024-01-30T10:19:40;19.10;52.70
61398;DHT22;47267;48.130;-2.040;2024-01-30T10:22:06;19.20;52.70
61398;DHT22;47267;48.130;-2.040;2024-01-30T10:24:34;19.20;52.70
61398;DHT22;47267;48.130;-2.040;2024-01-30T10:27:00;19.20;52.60
61398;DHT22;47267;48.130;-2.040;2024-01-30T10:29:27;19.20;52.60
61398;DHT22;47267;48.130;-2.040;2024-01-30T10:32:03;19.20;52.50
61398;DHT22;47267;48.130;-2.040;2024-01-30T10:34:30;19.20;52.50
61398;DHT22;47267;48.130;-2.040;2024-01-30T10:37:16;19.20;52.50
61398;DHT22;47267;48.130;-2.040;2024-01-30T10:39:43;19.20;52.50
61398;DHT22;47267;48.130;-2.040;2024-01-30T10:42:14;19.20;52.50
61398;DHT22;47267;48.130;-2.040;2024-01-30T10:47:21;19.20;52.40
61398;DHT22;47267;48.130;-2.040;2024-01-30T10:49:51;19.20;52.40
61398;DHT22;47267;48.130;-2.040;2024-01-30T10:52:18;19.30;52.40
61398;DHT22;47267;48.130;-2.040;2024-01-30T10:54:46;19.30;52.40
61398;DHT22;47267;48.130;-2.040;2024-01-30T10:57:13;19.30;52.30
61398;DHT22;47267;48.130;-2.040;2024-01-30T10:59:41;19.30;52.40
61398;DHT22;47267;48.130;-2.040;2024-01-30T11:02:08;19.30;52.30
61398;DHT22;47267;48.130;-2.040;2024-01-30T11:04:41;19.30;52.30
61398;DHT22;47267;48.130;-2.040;2024-01-30T11:07:24;19.30;52.30
61398;DHT22;47267;48.130;-2.040;2024-01-30T11:12:29;19.30;52.30
61398;DHT22;47267;48.130;-2.040;2024-01-30T11:15:09;19.30;52.30
61398;DHT22;47267;48.130;-2.040;2024-01-30T11:22:47;19.40;52.20
61398;DHT22;47267;48.130;-2.040;2024-01-30T11:25:17;19.40;52.20
61398;DHT22;47267;48.130;-2.040;2024-01-30T11:27:44;19.40;52.20
61398;DHT22;47267;48.130;-2.040;2024-01-30T11:30:11;19.40;52.20
61398;DHT22;47267;48.130;-2.040;2024-01-30T11:32:46;19.40;52.20
61398;DHT22;47267;48.130;-2.040;2024-01-30T11:35:12;19.40;52.10
61398;DHT22;47267;48.130;-2.040;2024-01-30T11:37:38;19.40;52.10
61398;DHT22;47267;48.130;-2.040;2024-01-30T11:40:05;19.40;52.20
61398;DHT22;47267;48.130;-2.040;2024-01-30T11:42:32;19.40;52.20
61398;DHT22;47267;48.130;-2.040;2024-01-30T11:45:00;19.40;52.20
61398;DHT22;47267;48.130;-2.040;2024-01-30T11:47:26;19.40;52.20
61398;DHT22;47267;48.130;-2.040;2024-01-30T11:49:52;19.40;52.20
61398;DHT22;47267;48.130;-2.040;2024-01-30T11:52:18;19.40;52.10
61398;DHT22;47267;48.130;-2.040;2024-01-30T11:54:44;19.40;52.20
61398;DHT22;47267;48.130;-2.040;2024-01-30T11:57:10;19.40;52.20
61398;DHT22;47267;48.130;-2.040;2024-01-30T11:59:35;19.40;52.20
61398;DHT22;47267;48.130;-2.040;2024-01-30T12:02:01;19.40;52.20
61398;DHT22;47267;48.130;-2.040;2024-01-30T12:04:30;19.40;52.10
61398;DHT22;47267;48.130;-2.040;2024-01-30T12:06:56;19.40;52.20
61398;DHT22;47267;48.130;-2.040;2024-01-30T12:09:22;19.40;52.20
61398;DHT22;47267;48.130;-2.040;2024-01-30T12:11:48;19.40;52.20
61398;DHT22;47267;48.130;-2.040;2024-01-30T12:14:16;19.40;52.20
61398;DHT22;47267;48.130;-2.040;2024-01-30T12:16:42;19.40;52.20
61398;DHT22;47267;48.130;-2.040;2024-01-30T12:19:07;19.40;52.20
61398;DHT22;47267;48.130;-2.040;2024-01-30T12:21:34;19.40;52.30
61398;DHT22;47267;48.130;-2.040;2024-01-30T12:24:00;19.40;52.30
61398;DHT22;47267;48.130;-2.040;2024-01-30T12:26:26;19.40;52.30
61398;DHT22;47267;48.130;-2.040;2024-01-30T12:28:56;19.40;52.30
61398;DHT22;47267;48.130;-2.040;2024-01-30T12:31:26;19.40;52.30
61398;DHT22;47267;48.130;-2.040;2024-01-30T12:33:53;19.40;52.20
61398;DHT22;47267;48.130;-2.040;2024-01-30T12:36:19;19.40;52.20
61398;DHT22;47267;48.130;-2.040;2024-01-30T12:38:45;19.40;52.20
61398;DHT22;47267;48.130;-2.040;2024-01-30T12:41:10;19.40;52.20
61398;DHT22;47267;48.130;-2.040;2024-01-30T12:43:36;19.40;52.20
61398;DHT22;47267;48.130;-2.040;2024-01-30T12:46:03;19.40;52.20
61398;DHT22;47267;48.130;-2.040;2024-01-30T12:48:28;19.40;52.20
61398;DHT22;47267;48.130;-2.040;2024-01-30T12:50:56;19.40;52.20
61398;DHT22;47267;48.130;-2.040;2024-01-30T12:53:22;19.40;52.10
61398;DHT22;47267;48.130;-2.040;2024-01-30T12:55:47;19.30;52.10
61398;DHT22;47267;48.130;-2.040;2024-01-30T12:58:15;19.40;52.10
61398;DHT22;47267;48.130;-2.040;2024-01-30T13:00:41;19.30;52.00
61398;DHT22;47267;48.130;-2.040;2024-01-30T13:03:09;19.30;52.10
61398;DHT22;47267;48.130;-2.040;2024-01-30T13:05:35;19.40;52.10
61398;DHT22;47267;48.130;-2.040;2024-01-30T13:08:01;19.40;52.10
61398;DHT22;47267;48.130;-2.040;2024-01-30T13:10:26;19.40;52.00
61398;DHT22;47267;48.130;-2.040;2024-01-30T13:12:53;19.40;52.00
61398;DHT22;47267;48.130;-2.040;2024-01-30T13:15:18;19.40;51.90
61398;DHT22;47267;48.130;-2.040;2024-01-30T13:17:44;19.40;52.00
61398;DHT22;47267;48.130;-2.040;2024-01-30T13:20:13;19.40;51.90
61398;DHT22;47267;48.130;-2.040;2024-01-30T13:22:43;19.40;51.90
61398;DHT22;47267;48.130;-2.040;2024-01-30T13:25:09;19.40;51.90
61398;DHT22;47267;48.130;-2.040;2024-01-30T13:27:35;19.40;51.80
61398;DHT22;47267;48.130;-2.040;2024-01-30T13:30:01;19.40;51.80
61398;DHT22;47267;48.130;-2.040;2024-01-30T13:32:26;19.50;51.90
61398;DHT22;47267;48.130;-2.040;2024-01-30T13:34:52;19.40;51.80
61398;DHT22;47267;48.130;-2.040;2024-01-30T13:37:18;19.50;51.80
61398;DHT22;47267;48.130;-2.040;2024-01-30T13:39:44;19.50;51.90
61398;DHT22;47267;48.130;-2.040;2024-01-30T13:42:09;19.40;51.70
61398;DHT22;47267;48.130;-2.040;2024-01-30T13:44:36;19.50;51.70
61398;DHT22;47267;48.130;-2.040;2024-01-30T13:47:02;19.50;51.70
61398;DHT22;47267;48.130;-2.040;2024-01-30T13:49:27;19.50;51.70
61398;DHT22;47267;48.130;-2.040;2024-01-30T13:51:53;19.50;51.70
61398;DHT22;47267;48.130;-2.040;2024-01-30T13:54:19;19.50;51.60
61398;DHT22;47267;48.130;-2.040;2024-01-30T13:56:44;19.50;51.60
61398;DHT22;47267;48.130;-2.040;2024-01-30T13:59:10;19.50;51.50
61398;DHT22;47267;48.130;-2.040;2024-01-30T14:01:36;19.50;51.50
61398;DHT22;47267;48.130;-2.040;2024-01-30T14:04:01;19.50;51.60
61398;DHT22;47267;48.130;-2.040;2024-01-30T14:06:27;19.50;51.50
61398;DHT22;47267;48.130;-2.040;2024-01-30T14:08:53;19.50;51.60
61398;DHT22;47267;48.130;-2.040;2024-01-30T14:11:19;19.50;51.60
61398;DHT22;47267;48.130;-2.040;2024-01-30T14:13:45;19.50;51.50
61398;DHT22;47267;48.130;-2.040;2024-01-30T14:16:10;19.50;51.50
61398;DHT22;47267;48.130;-2.040;2024-01-30T14:18:37;19.50;51.50
61398;DHT22;47267;48.130;-2.040;2024-01-30T14:21:03;19.50;51.50
61398;DHT22;47267;48.130;-2.040;2024-01-30T14:23:28;19.50;51.50
61398;DHT22;47267;48.130;-2.040;2024-01-30T14:25:54;19.50;51.50
61398;DHT22;47267;48.130;-2.040;2024-01-30T14:28:20;19.50;51.50
61398;DHT22;47267;48.130;-2.040;2024-01-30T14:30:45;19.50;51.50
61398;DHT22;47267;48.130;-2.040;2024-01-30T14:33:11;19.50;51.50
61398;DHT22;47267;48.130;-2.040;2024-01-30T14:35:37;19.50;51.60
61398;DHT22;47267;48.130;-2.040;2024-01-30T14:38:03;19.50;51.50
61398;DHT22;47267;48.130;-2.040;2024-01-30T14:40:30;19.50;51.40
61398;DHT22;47267;48.130;-2.040;2024-01-30T14:42:56;19.50;51.50
61398;DHT22;47267;48.130;-2.040;2024-01-30T14:45:22;19.50;51.50
61398;DHT22;47267;48.130;-2.040;2024-01-30T14:47:48;19.50;51.50
61398;DHT22;47267;48.130;-2.040;2024-01-30T14:50:13;19.40;51.40
61398;DHT22;47267;48.130;-2.040;2024-01-30T14:52:42;19.40;51.50
61398;DHT22;47267;48.130;-2.040;2024-01-30T14:55:08;19.40;51.50
61398;DHT22;47267;48.130;-2.040;2024-01-30T14:57:34;19.40;51.40
61398;DHT22;47267;48.130;-2.040;2024-01-30T15:00:00;19.40;51.50
61398;DHT22;47267;48.130;-2.040;2024-01-30T15:02:26;19.40;51.40
61398;DHT22;47267;48.130;-2.040;2024-01-30T15:04:52;19.40;51.40
61398;DHT22;47267;48.130;-2.040;2024-01-30T15:07:18;19.40;51.30
61398;DHT22;47267;48.130;-2.040;2024-01-30T15:09:44;19.40;51.40
61398;DHT22;47267;48.130;-2.040;2024-01-30T15:12:09;19.40;51.40
61398;DHT22;47267;48.130;-2.040;2024-01-30T15:14:35;19.40;51.30
61398;DHT22;47267;48.130;-2.040;2024-01-30T15:17:01;19.40;51.30
61398;DHT22;47267;48.130;-2.040;2024-01-30T15:19:27;19.30;51.40
61398;DHT22;47267;48.130;-2.040;2024-01-30T15:21:52;19.40;51.30
61398;DHT22;47267;48.130;-2.040;2024-01-30T15:24:18;19.40;51.30